Time;durP1;ratioP1;P1;durP2;ratioP2;P2;SDS_P1;SDS_P2;PMS_P1;PMS_P2;Temp;Humidity;BMP_temperature;BMP_pressure;BME280_temperature;BME280_humidity;BME280_pressure;Samples;Min_cycle;Max_cycle;Signal;HPM_P1;HPM_P2
2022/03/28 00:01:15;;;;;;;5.42;1.87;;;;;;;-2.62;86.02;101808.31;1684413;83;21029;-83
2022/03/28 00:03:41;;;;;;;6.35;2.40;;;;;;;-2.61;85.69;101819.20;1633684;85;21137;-83
2022/03/28 00:06:08;;;;;;;7.58;1.98;;;;;;;-2.60;85.59;101812.11;1660194;85;21541;-83
2022/03/28 00:08:34;;;;;;;8.80;1.90;;;;;;;-2.60;85.14;101812.94;1643494;85;21596;-83
2022/03/28 00:11:01;;;;;;;5.15;1.40;;;;;;;-2.59;84.34;101817.72;1664419;85;21063;-83
2022/03/28 00:13:27;;;;;;;6.33;1.85;;;;;;;-2.62;84.18;101812.73;1659690;85;21201;-83
2022/03/28 00:15:54;;;;;;;5.12;1.60;;;;;;;-2.64;83.66;101812.89;1657137;85;21107;-82
2022/03/28 00:18:20;;;;;;;6.53;1.75;;;;;;;-2.65;83.95;101813.02;1660936;84;21029;-82
2022/03/28 00:20:49;;;;;;;7.60;1.65;;;;;;;-2.68;84.04;101815.94;1660304;85;21114;-82
2022/03/28 00:23:16;;;;;;;6.58;1.60;;;;;;;-2.69;84.77;101814.29;1661413;84;21424;-82
2022/03/28 00:25:44;;;;;;;4.37;1.80;;;;;;;-2.73;84.27;101809.79;1668785;85;21729;-83
2022/03/28 00:28:10;;;;;;;8.18;1.77;;;;;;;-2.77;83.67;101809.71;1659292;85;21139;-83
2022/03/28 00:30:36;;;;;;;3.65;1.40;;;;;;;-2.83;83.63;101811.60;1658888;85;21072;-83
2022/03/28 00:33:03;;;;;;;18.48;2.60;;;;;;;-2.87;84.15;101808.91;1679406;83;21164;-82
2022/03/28 00:35:30;;;;;;;3.65;1.77;;;;;;;-2.90;84.32;101808.70;1681038;83;20960;-82
2022/03/28 00:37:56;;;;;;;5.28;1.75;;;;;;;-2.90;85.51;101811.84;1690417;83;21049;-83
2022/03/28 00:40:23;;;;;;;4.45;1.50;;;;;;;-2.91;84.98;101809.69;1687321;82;21204;-83
2022/03/28 00:42:50;;;;;;;12.40;1.87;;;;;;;-2.91;85.32;101812.78;1686555;82;21105;-82
2022/03/28 00:45:18;;;;;;;6.30;1.62;;;;;;;-2.94;85.81;101818.34;1674439;83;21113;-83
2022/03/28 00:47:44;;;;;;;3.98;1.77;;;;;;;-2.95;85.94;101820.65;1680010;83;21004;-83
2022/03/28 00:50:11;;;;;;;6.00;1.60;;;;;;;-2.95;86.17;101825.43;1683319;82;21025;-83
2022/03/28 00:52:40;;;;;;;3.62;1.55;;;;;;;-2.98;85.88;101821.27;1677239;82;21037;-83
2022/03/28 00:55:08;;;;;;;5.22;1.82;;;;;;;-2.99;85.90;101832.80;1668896;84;21112;-83
2022/03/28 00:57:35;;;;;;;5.80;2.00;;;;;;;-2.99;85.63;101826.70;1693173;82;21536;-83
2022/03/28 01:00:05;;;;;;;7.12;2.40;;;;;;;-3.00;85.77;101819.28;1722374;82;21573;-83
2022/03/28 01:02:32;;;;;;;7.65;2.60;;;;;;;-3.01;85.37;101828.62;1722067;82;21094;-83
2022/03/28 01:04:59;;;;;;;5.03;2.20;;;;;;;-3.01;85.09;101827.31;1722255;82;21074;-82
2022/03/28 01:07:27;;;;;;;8.30;2.72;;;;;;;-3.03;84.86;101838.48;1714681;82;21037;-83
2022/03/28 01:09:55;;;;;;;8.98;2.65;;;;;;;-3.05;84.80;101832.53;1719079;81;21839;-83
2022/03/28 01:12:24;;;;;;;7.45;2.80;;;;;;;-3.07;85.06;101826.06;1715210;82;21495;-82
2022/03/28 01:14:51;;;;;;;10.55;3.05;;;;;;;-3.06;84.73;101836.13;1714887;81;21081;-83
2022/03/28 01:20:02;;;;;;;6.20;2.60;;;;;;;-3.12;84.04;101840.14;1720919;82;21054;-83
2022/03/28 01:22:29;;;;;;;7.83;3.37;;;;;;;-3.14;83.56;101836.84;1721397;81;21235;-83
2022/03/28 01:24:59;;;;;;;9.05;2.20;;;;;;;-3.15;83.42;101842.23;1726952;81;21570;-81
2022/03/28 01:27:25;;;;;;;7.50;2.58;;;;;;;-3.17;83.84;101842.88;1674001;84;21046;-81
2022/03/28 01:29:52;;;;;;;6.58;2.25;;;;;;;-3.17;84.49;101846.83;1671949;84;21346;-82
2022/03/28 01:32:18;;;;;;;5.85;1.85;;;;;;;-3.20;83.45;101846.13;1637564;86;21617;-81
2022/03/28 01:34:44;;;;;;;3.80;1.67;;;;;;;-3.24;83.30;101842.09;1633631;86;21790;-82
2022/03/28 01:37:10;;;;;;;6.45;2.02;;;;;;;-3.28;83.41;101839.39;1630682;87;21519;-81
2022/03/28 01:39:37;;;;;;;7.55;2.20;;;;;;;-3.29;83.64;101837.73;1628050;87;21641;-81
2022/03/28 01:42:04;;;;;;;8.53;1.98;;;;;;;-3.29;83.73;101842.19;1668058;85;21077;-81
2022/03/28 01:44:30;;;;;;;4.15;2.20;;;;;;;-3.30;84.37;101840.01;1669997;84;20967;-81
2022/03/28 01:46:56;;;;;;;5.50;2.12;;;;;;;-3.30;83.67;101840.01;1630223;86;21852;-81
2022/03/28 01:49:23;;;;;;;3.72;1.50;;;;;;;-3.31;83.73;101837.03;1635241;86;21658;-81
2022/03/28 01:51:50;;;;;;;4.85;1.70;;;;;;;-3.32;83.18;101834.55;1631806;86;21033;-81
2022/03/28 01:54:17;;;;;;;4.17;1.57;;;;;;;-3.33;83.17;101831.06;1634228;86;21128;-81
2022/03/28 01:56:44;;;;;;;4.15;1.77;;;;;;;-3.33;83.98;101840.28;1632388;86;21152;-83
2022/03/28 01:59:11;;;;;;;2.85;1.67;;;;;;;-3.34;83.48;101840.44;1663982;85;21115;-83
2022/03/28 02:01:38;;;;;;;13.98;1.85;;;;;;;-3.37;83.20;101853.40;1672117;85;21216;-83
2022/03/28 02:04:05;;;;;;;4.78;1.57;;;;;;;-3.40;83.48;101849.72;1610479;88;21195;-84
2022/03/28 02:06:34;;;;;;;4.15;1.67;;;;;;;-3.43;83.38;101852.63;1606871;88;21080;-83
2022/03/28 02:09:01;;;;;;;4.40;1.80;;;;;;;-3.46;84.22;101852.42;1668928;84;21559;-82
2022/03/28 02:11:28;;;;;;;5.53;1.92;;;;;;;-3.48;83.72;101850.88;1674241;84;21821;-82
2022/03/28 02:13:55;;;;;;;5.97;1.77;;;;;;;-3.53;83.78;101854.41;1637801;86;21608;-82
2022/03/28 02:16:21;;;;;;;4.37;1.62;;;;;;;-3.56;84.73;101850.73;1629213;86;21129;-82
2022/03/28 02:18:47;;;;;;;7.00;2.05;;;;;;;-3.57;84.59;101858.30;1633268;86;21057;-82
2022/03/28 02:21:14;;;;;;;6.22;1.85;;;;;;;-3.58;84.68;101856.64;1655538;85;21023;-82
2022/03/28 02:23:40;;;;;;;9.38;1.90;;;;;;;-3.62;85.12;101856.05;1646371;84;21106;-82
2022/03/28 02:26:07;;;;;;;5.95;1.87;;;;;;;-3.65;85.05;101858.95;1686242;83;21022;-82
2022/03/28 02:28:34;;;;;;;4.80;1.95;;;;;;;-3.67;85.37;101860.42;1669057;83;21115;-82
2022/03/28 02:31:00;;;;;;;8.03;2.10;;;;;;;-3.68;85.18;101871.08;1678074;83;21189;-83
2022/03/28 02:33:26;;;;;;;5.45;1.87;;;;;;;-3.70;86.22;101873.87;1664998;83;21083;-83
2022/03/28 02:35:52;;;;;;;4.17;1.92;;;;;;;-3.72;85.89;101875.80;1680098;83;21132;-81
2022/03/28 02:38:19;;;;;;;9.45;2.30;;;;;;;-3.74;86.42;101880.35;1664298;83;21107;-83
2022/03/28 02:40:45;;;;;;;9.10;2.60;;;;;;;-3.75;85.89;101884.45;1714636;82;21029;-83
2022/03/28 02:43:12;;;;;;;7.67;2.37;;;;;;;-3.77;85.36;101882.42;1710984;82;21007;-83
2022/03/28 02:45:38;;;;;;;9.68;2.50;;;;;;;-3.80;85.77;101887.47;1715427;82;20951;-81
2022/03/28 02:48:05;;;;;;;11.97;2.40;;;;;;;-3.83;85.77;101878.52;1716801;83;21110;-82
2022/03/28 02:50:33;;;;;;;15.88;2.45;;;;;;;-3.85;86.38;101884.43;1713210;82;21668;-81
2022/03/28 02:53:00;;;;;;;5.90;2.62;;;;;;;-3.87;86.17;101880.27;1712852;82;21102;-82
2022/03/28 02:55:26;;;;;;;5.80;2.40;;;;;;;-3.89;85.84;101888.28;1715758;82;21030;-82
2022/03/28 02:57:52;;;;;;;6.67;2.37;;;;;;;-3.90;86.49;101881.36;1718975;82;21011;-82
2022/03/28 03:00:19;;;;;;;7.00;2.40;;;;;;;-3.95;86.15;101884.86;1723335;82;21157;-82
2022/03/28 03:02:45;;;;;;;9.38;2.45;;;;;;;-3.96;86.21;101885.84;1719704;82;21069;-82
2022/03/28 03:05:13;;;;;;;4.97;2.12;;;;;;;-3.97;87.01;101894.69;1724524;82;20954;-81
2022/03/28 03:07:39;;;;;;;6.08;2.02;;;;;;;-3.99;87.63;101896.64;1722294;82;21084;-82
2022/03/28 03:10:07;;;;;;;4.70;1.90;;;;;;;-4.02;86.95;101896.41;1683161;82;21120;-82
2022/03/28 03:12:33;;;;;;;5.67;2.10;;;;;;;-4.05;87.62;101903.27;1716787;82;21152;-81
2022/03/28 03:15:00;;;;;;;9.85;2.62;;;;;;;-4.04;87.83;101898.34;1723474;82;21077;-81
2022/03/28 03:17:26;;;;;;;4.67;2.10;;;;;;;-4.04;88.00;101909.35;1720036;82;20991;-81
2022/03/28 03:19:52;;;;;;;6.70;2.33;;;;;;;-4.08;87.89;101914.05;1719828;82;21148;-81
2022/03/28 03:22:18;;;;;;;11.40;2.67;;;;;;;-4.06;89.11;101919.17;1717092;82;22445;-81
2022/03/28 03:24:46;;;;;;;6.28;2.08;;;;;;;-4.04;89.25;101919.39;1721197;81;21295;-81
2022/03/28 03:27:14;;;;;;;10.30;1.82;;;;;;;-4.02;89.05;101921.91;1719609;81;21309;-82
2022/03/28 03:29:41;;;;;;;11.38;2.37;;;;;;;-4.00;88.62;101928.72;1685128;82;21017;-81
2022/03/28 03:32:09;;;;;;;9.00;2.20;;;;;;;-3.99;89.00;101930.38;1692045;83;21030;-82
2022/03/28 03:34:36;;;;;;;6.83;1.80;;;;;;;-3.97;89.56;101933.72;1679050;83;21167;-82
2022/03/28 03:37:04;;;;;;;4.50;2.08;;;;;;;-3.95;89.33;101936.20;1686761;82;21280;-81
2022/03/28 03:39:30;;;;;;;7.25;2.10;;;;;;;-3.90;89.40;101935.33;1681741;83;21079;-81
2022/03/28 03:41:56;;;;;;;10.20;2.25;;;;;;;-3.84;89.22;101936.12;1687267;82;21010;-82
2022/03/28 03:44:23;;;;;;;5.42;1.98;;;;;;;-3.79;88.95;101933.10;1686109;82;22268;-82
2022/03/28 03:46:49;;;;;;;5.15;1.62;;;;;;;-3.71;88.83;101941.15;1689068;82;21022;-82
2022/03/28 03:49:18;;;;;;;5.40;2.27;;;;;;;-3.61;88.75;101941.20;1655798;85;21207;-82
2022/03/28 03:51:45;;;;;;;4.35;2.00;;;;;;;-3.49;88.17;101939.64;1655860;85;21049;-82
2022/03/28 03:54:12;;;;;;;6.08;2.02;;;;;;;-3.33;87.58;101941.75;1660924;84;21037;-82
2022/03/28 03:56:38;;;;;;;6.20;2.33;;;;;;;-3.17;86.83;101943.88;1683174;82;20994;-82
2022/03/28 03:59:05;;;;;;;4.85;1.90;;;;;;;-2.97;85.71;101955.30;1678018;83;21070;-83
2022/03/28 04:01:32;;;;;;;9.25;2.30;;;;;;;-2.79;84.78;101956.76;1681988;83;21090;-83
2022/03/28 04:03:58;;;;;;;7.10;3.00;;;;;;;-2.60;83.94;101955.91;1670487;83;21115;-82
2022/03/28 04:06:24;;;;;;;6.42;2.25;;;;;;;-2.42;81.95;101959.50;1668813;83;21079;-83
2022/03/28 04:08:50;;;;;;;6.15;2.30;;;;;;;-2.22;80.70;101958.16;1680911;83;21042;-83
2022/03/28 04:11:17;;;;;;;8.13;2.40;;;;;;;-2.03;79.32;101947.53;1688358;82;21109;-83
2022/03/28 04:13:43;;;;;;;6.35;2.20;;;;;;;-1.85;77.84;101951.11;1688665;82;21662;-83
2022/03/28 04:16:09;;;;;;;5.12;2.00;;;;;;;-1.66;76.60;101959.44;1682868;83;21018;-83
2022/03/28 04:18:35;;;;;;;12.28;2.47;;;;;;;-1.44;74.71;101962.20;1684755;82;21164;-83
2022/03/28 04:21:03;;;;;;;6.08;2.47;;;;;;;-1.14;74.32;101964.19;1689708;82;21113;-84
2022/03/28 04:23:29;;;;;;;7.78;2.92;;;;;;;-0.62;73.92;101965.67;1673251;83;21058;-83
2022/03/28 04:25:55;;;;;;;4.15;2.02;;;;;;;0.27;71.18;101962.50;1684682;82;21110;-84
2022/03/28 04:28:21;;;;;;;13.32;2.67;;;;;;;1.19;67.02;101967.43;1723672;82;21010;-84
2022/03/28 04:30:50;;;;;;;10.48;2.83;;;;;;;2.02;63.29;101964.57;1720537;82;20993;-84
2022/03/28 04:33:16;;;;;;;7.28;2.10;;;;;;;2.70;60.46;101960.00;1716471;81;21061;-84
2022/03/28 04:35:43;;;;;;;6.33;2.42;;;;;;;3.27;58.11;101962.02;1718401;82;21176;-85
2022/03/28 04:38:09;;;;;;;10.80;2.40;;;;;;;4.13;57.32;101969.25;1719396;82;21150;-85
2022/03/28 04:40:37;;;;;;;4.28;2.47;;;;;;;5.24;55.28;101965.48;1718411;82;21145;-85
2022/03/28 04:43:04;;;;;;;7.25;2.37;;;;;;;5.79;52.79;101957.72;1725686;81;21049;-86
2022/03/28 04:45:31;;;;;;;6.78;2.85;;;;;;;6.20;51.30;101963.17;1721929;81;21030;-85
2022/03/28 04:47:58;;;;;;;7.50;2.50;;;;;;;6.87;50.18;101955.45;1721737;81;21027;-86
2022/03/28 04:50:24;;;;;;;5.90;2.52;;;;;;;7.55;49.33;101960.73;1722987;81;21096;-86
2022/03/28 04:52:51;;;;;;;6.62;2.35;;;;;;;8.24;47.84;101956.75;1726116;82;21153;-87
2022/03/28 04:55:17;;;;;;;5.47;2.70;;;;;;;9.04;46.37;101958.09;1717953;82;21014;-88
2022/03/28 04:57:44;;;;;;;6.75;2.55;;;;;;;9.97;45.84;101943.92;1720475;82;21061;-87
2022/03/28 05:00:11;;;;;;;9.10;2.52;;;;;;;11.21;44.66;101950.41;1718205;82;21014;-88
2022/03/28 05:02:38;;;;;;;7.95;2.35;;;;;;;12.33;42.89;101955.49;1723193;81;21717;-89
2022/03/28 05:05:06;;;;;;;7.30;2.65;;;;;;;13.29;41.00;101950.32;1715554;82;21050;-89
2022/03/28 05:07:35;;;;;;;6.28;2.35;;;;;;;14.10;39.25;101964.34;1721972;82;21102;-89
2022/03/28 05:10:03;;;;;;;4.95;2.95;;;;;;;14.76;38.30;101968.45;1719847;82;21089;-90
2022/03/28 05:12:30;;;;;;;6.50;2.60;;;;;;;15.56;37.55;101961.89;1720709;82;20927;-89
2022/03/28 05:14:56;;;;;;;8.38;2.30;;;;;;;16.44;35.91;101960.87;1725544;81;21120;-89
2022/03/28 05:17:24;;;;;;;7.58;2.72;;;;;;;17.09;34.43;101952.34;1717561;81;21240;-89
2022/03/28 05:19:51;;;;;;;3.58;2.27;;;;;;;17.52;33.52;101950.20;1713010;81;21666;-90
2022/03/28 05:22:19;;;;;;;4.80;2.17;;;;;;;17.93;32.26;101946.36;1716476;82;22284;-89
2022/03/28 05:24:45;;;;;;;4.35;1.95;;;;;;;18.35;32.09;101960.18;1720774;82;21002;-89
2022/03/28 05:27:12;;;;;;;7.97;2.37;;;;;;;18.77;31.11;101955.37;1724830;81;21484;-89
2022/03/28 05:29:38;;;;;;;8.03;2.40;;;;;;;19.11;30.38;101951.87;1724292;82;20995;-88
2022/03/28 05:32:06;;;;;;;4.78;2.00;;;;;;;19.47;29.81;101957.35;1716672;82;21186;-88
2022/03/28 05:34:32;;;;;;;7.10;2.30;;;;;;;19.79;28.12;101960.08;1727548;81;21096;-88
2022/03/28 05:37:02;;;;;;;6.97;2.10;;;;;;;20.04;28.49;101960.95;1723992;82;20986;-88
2022/03/28 05:39:28;;;;;;;4.67;2.33;;;;;;;20.45;27.74;101955.81;1700324;83;21817;-89
2022/03/28 05:41:55;;;;;;;4.85;2.47;;;;;;;21.13;26.71;101953.24;1695540;82;21023;-87
2022/03/28 05:44:21;;;;;;;4.58;2.30;;;;;;;21.37;26.67;101950.98;1701915;81;21122;-87
2022/03/28 05:46:51;;;;;;;8.35;2.42;;;;;;;21.66;24.80;101947.45;1707684;81;21185;-88
2022/03/28 05:49:19;;;;;;;4.87;2.00;;;;;;;21.73;23.88;101945.68;1705695;81;20960;-88
2022/03/28 05:51:46;;;;;;;8.23;2.45;;;;;;;21.44;23.99;101945.91;1711355;81;21114;-87
2022/03/28 05:54:12;;;;;;;4.55;2.15;;;;;;;21.72;24.56;101941.31;1710483;82;21104;-87
2022/03/28 05:56:39;;;;;;;6.03;2.27;;;;;;;21.97;23.87;101953.73;1699134;82;21823;-88
2022/03/28 05:59:07;;;;;;;5.75;2.45;;;;;;;21.97;23.60;101952.36;1719058;81;21035;-87
2022/03/28 06:01:37;;;;;;;4.08;2.00;;;;;;;22.32;23.54;101952.25;1705407;81;21101;-88
2022/03/28 06:04:05;;;;;;;5.00;2.02;;;;;;;23.03;23.39;101954.58;1699436;81;21888;-88
2022/03/28 06:06:32;;;;;;;4.92;2.17;;;;;;;23.50;23.06;101952.33;1714307;82;21065;-87
2022/03/28 06:08:59;;;;;;;6.72;2.20;;;;;;;23.76;22.25;101958.83;1696319;82;21042;-87
2022/03/28 06:11:26;;;;;;;3.95;2.20;;;;;;;23.75;21.58;101958.59;1697958;82;21015;-87
2022/03/28 06:13:53;;;;;;;5.10;2.50;;;;;;;24.21;21.49;101956.53;1691557;82;21031;-88
2022/03/28 06:16:20;;;;;;;9.95;2.42;;;;;;;24.59;20.63;101961.49;1691813;82;21169;-87
2022/03/28 06:18:46;;;;;;;5.08;2.40;;;;;;;24.44;20.45;101961.38;1692817;82;21112;-89
2022/03/28 06:21:13;;;;;;;4.65;2.65;;;;;;;24.54;20.03;101955.58;1700254;82;21130;-88
2022/03/28 06:23:39;;;;;;;6.30;2.60;;;;;;;25.01;20.29;101959.92;1696219;83;21348;-88
2022/03/28 06:26:06;;;;;;;4.10;1.90;;;;;;;25.11;19.21;101957.39;1692519;82;20903;-87
2022/03/28 06:28:33;;;;;;;4.58;2.20;;;;;;;25.12;19.00;101957.09;1701029;83;21903;-89
2022/03/28 06:30:59;;;;;;;4.20;2.30;;;;;;;25.21;18.61;101946.08;1705175;83;21142;-89
2022/03/28 06:33:26;;;;;;;3.02;2.00;;;;;;;25.57;18.08;101948.43;1690546;82;20970;-89
2022/03/28 06:35:53;;;;;;;3.87;2.30;;;;;;;25.62;17.56;101946.08;1693524;82;21183;-88
2022/03/28 06:38:19;;;;;;;2.15;1.92;;;;;;;25.43;17.80;101951.95;1691175;83;21573;-88
2022/03/28 06:40:46;;;;;;;4.95;2.55;;;;;;;25.96;18.07;101956.78;1712609;82;21088;-88
2022/03/28 06:43:13;;;;;;;3.52;1.92;;;;;;;26.70;17.98;101952.64;1713635;82;21094;-89
2022/03/28 06:45:40;;;;;;;5.67;2.17;;;;;;;27.52;16.51;101954.29;1691000;82;21013;-88
2022/03/28 06:48:07;;;;;;;4.53;2.00;;;;;;;27.14;16.44;101958.05;1726173;81;21080;-89
2022/03/28 06:50:34;;;;;;;2.52;1.77;;;;;;;27.11;15.95;101953.77;1703229;81;21652;-88
2022/03/28 06:53:02;;;;;;;2.72;1.50;;;;;;;26.53;16.24;101944.46;1703216;82;21063;-89
2022/03/28 06:55:29;;;;;;;1.70;1.60;;;;;;;26.49;16.15;101950.67;1725025;82;20974;-90
2022/03/28 06:57:56;;;;;;;3.65;1.55;;;;;;;26.10;15.51;101946.31;1698498;81;21055;-87
2022/03/28 07:00:23;;;;;;;2.77;1.90;;;;;;;26.67;16.48;101954.12;1729087;82;21578;-89
2022/03/28 07:02:49;;;;;;;3.85;1.92;;;;;;;27.16;15.14;101968.25;1721792;82;21121;-89
2022/03/28 07:05:16;;;;;;;3.25;1.82;;;;;;;27.07;15.34;101958.38;1714251;82;21484;-88
2022/03/28 07:07:46;;;;;;;2.17;1.80;;;;;;;26.95;14.89;101961.32;1719973;81;21010;-88
2022/03/28 07:10:16;;;;;;;4.70;1.70;;;;;;;26.25;15.17;101963.70;1715049;82;21439;-90
2022/03/28 07:12:44;;;;;;;3.60;2.00;;;;;;;25.74;15.26;101949.53;1682182;83;21062;-88
2022/03/28 07:15:12;;;;;;;3.47;2.00;;;;;;;25.95;15.79;101955.17;1689649;82;20962;-89
2022/03/28 07:18:02;;;;;;;3.85;1.80;;;;;;;27.05;15.83;101964.24;1688744;82;21088;-88
2022/03/28 07:20:29;;;;;;;2.85;1.80;;;;;;;27.55;15.13;101956.38;1680765;82;20955;-90
2022/03/28 07:22:57;;;;;;;3.70;2.10;;;;;;;27.26;14.67;101963.44;1664535;84;21093;-88
2022/03/28 07:25:25;;;;;;;2.65;1.87;;;;;;;27.05;14.66;101958.70;1689419;82;21097;-89
2022/03/28 07:27:53;;;;;;;4.35;2.10;;;;;;;27.17;15.21;101949.67;1679352;82;21041;-92
2022/03/28 07:30:22;;;;;;;3.00;1.90;;;;;;;27.34;14.14;101942.59;1674890;84;21110;-86
2022/03/28 07:32:52;;;;;;;5.95;1.87;;;;;;;27.02;14.48;101938.63;1665977;83;21241;-88
2022/03/28 07:35:20;;;;;;;5.30;2.10;;;;;;;27.80;14.75;101925.41;1680620;83;21005;-87
2022/03/28 07:37:50;;;;;;;6.28;2.10;;;;;;;27.98;14.13;101926.58;1671672;84;21105;-87
2022/03/28 07:40:17;;;;;;;4.67;2.00;;;;;;;27.90;14.24;101911.67;1685113;82;21553;-86
2022/03/28 07:42:46;;;;;;;2.65;1.70;;;;;;;28.48;14.40;101919.86;1695716;83;21134;-86
2022/03/28 07:45:14;;;;;;;7.55;2.02;;;;;;;29.13;13.41;101917.80;1677704;83;21161;-87
2022/03/28 07:47:42;;;;;;;4.00;1.87;;;;;;;28.71;13.26;101915.98;1672480;83;22308;-87
2022/03/28 07:50:10;;;;;;;4.35;2.15;;;;;;;28.29;13.23;101914.87;1681295;83;21080;-87
2022/03/28 07:52:39;;;;;;;3.10;1.80;;;;;;;27.78;13.59;101901.94;1677735;83;21484;-86
2022/03/28 07:55:08;;;;;;;5.95;1.62;;;;;;;27.95;13.20;101898.97;1659487;83;21136;-85
2022/03/28 07:57:36;;;;;;;2.35;1.60;;;;;;;27.54;12.87;101904.91;1686540;83;21640;-85
2022/03/28 08:00:06;;;;;;;3.42;1.50;;;;;;;27.13;13.62;101893.36;1688682;82;21010;-85
2022/03/28 08:02:33;;;;;;;6.42;1.70;;;;;;;27.53;13.71;101888.63;1694008;82;21168;-86
2022/03/28 08:05:00;;;;;;;3.83;1.72;;;;;;;27.42;13.09;101877.78;1681572;82;21086;-86
2022/03/28 08:07:27;;;;;;;1.90;1.42;;;;;;;26.90;13.14;101888.78;1684082;83;21201;-85
2022/03/28 08:09:54;;;;;;;4.50;1.30;;;;;;;26.33;13.21;101882.47;1704802;81;21467;-86
2022/03/28 08:12:21;;;;;;;2.67;1.40;;;;;;;26.24;13.44;101881.14;1721194;82;21156;-86
2022/03/28 08:14:49;;;;;;;7.78;1.60;;;;;;;26.83;13.06;101874.70;1722423;82;21074;-85
2022/03/28 08:17:19;;;;;;;2.70;1.40;;;;;;;26.73;13.16;101878.67;1722841;81;21069;-85
2022/03/28 08:19:46;;;;;;;2.87;1.27;;;;;;;26.72;12.70;101864.61;1723415;81;21030;-87
2022/03/28 08:22:14;;;;;;;2.45;1.22;;;;;;;26.42;13.01;101862.48;1720754;81;21075;-86
2022/03/28 08:24:41;;;;;;;1.77;1.37;;;;;;;26.42;12.81;101871.58;1722632;81;21054;-86
2022/03/28 08:27:08;;;;;;;3.50;1.20;;;;;;;26.49;12.30;101861.35;1713744;81;21125;-86
2022/03/28 08:29:36;;;;;;;2.20;1.45;;;;;;;26.16;12.29;101842.73;1720315;81;21038;-86
2022/03/28 08:32:04;;;;;;;3.92;1.50;;;;;;;25.75;12.34;101851.15;1720288;81;21184;-86
2022/03/28 08:34:31;;;;;;;3.98;1.60;;;;;;;25.00;12.88;101859.02;1722017;81;21486;-87
2022/03/28 08:37:01;;;;;;;3.00;1.77;;;;;;;24.52;12.87;101859.99;1722407;82;21107;-84
2022/03/28 08:39:28;;;;;;;4.70;1.62;;;;;;;24.11;13.16;101854.31;1718916;82;20999;-87
2022/03/28 08:41:56;;;;;;;4.58;2.12;;;;;;;24.25;13.61;101843.17;1722670;82;21018;-87
2022/03/28 08:44:26;;;;;;;6.12;1.47;;;;;;;25.04;13.26;101854.45;1718755;82;21995;-86
2022/03/28 08:46:55;;;;;;;5.47;1.32;;;;;;;25.57;13.23;101855.14;1723404;82;21098;-86
2022/03/28 08:49:22;;;;;;;2.98;1.80;;;;;;;25.83;12.78;101838.48;1722121;82;20995;-86
2022/03/28 08:51:49;;;;;;;11.50;1.65;;;;;;;25.82;12.63;101837.67;1724447;82;21215;-86
2022/03/28 08:54:16;;;;;;;3.33;1.67;;;;;;;26.07;12.60;101834.28;1729688;82;21055;-85
2022/03/28 08:56:43;;;;;;;9.30;2.00;;;;;;;25.73;12.44;101832.71;1686771;83;21142;-89
2022/03/28 08:59:09;;;;;;;3.92;2.00;;;;;;;25.42;12.13;101823.95;1685189;83;21087;-85
2022/03/28 09:01:37;;;;;;;5.72;2.25;;;;;;;24.70;12.53;101828.52;1675647;84;21128;-85
2022/03/28 09:04:12;;;;;;;3.33;2.02;;;;;;;24.60;13.09;101830.25;1663320;83;21028;-85
2022/03/28 09:06:43;;;;;;;5.67;1.72;;;;;;;25.13;12.73;101813.88;1681608;83;21317;-84
2022/03/28 09:09:31;;;;;;;8.65;1.95;;;;;;;24.82;12.83;101828.44;1686155;83;21183;-85
2022/03/28 09:12:08;;;;;;;4.25;2.30;;;;;;;24.72;12.70;101817.75;1652307;85;21123;-85
2022/03/28 09:14:40;;;;;;;4.17;1.92;;;;;;;24.85;12.96;101807.09;1641978;85;21138;-86
2022/03/28 09:17:18;;;;;;;4.55;2.35;;;;;;;25.28;12.79;101809.77;1648523;84;20981;-86
2022/03/28 09:20:02;;;;;;;8.78;2.67;;;;;;;25.58;12.93;101812.00;1645660;84;21043;-84
2022/03/28 09:22:31;;;;;;;6.87;2.72;;;;;;;25.64;12.40;101801.58;1658914;86;21443;-84
2022/03/28 09:25:02;;;;;;;9.28;3.58;;;;;;;25.91;12.81;101798.12;1651908;85;21044;-85
2022/03/28 09:27:39;;;;;;;15.60;3.70;;;;;;;26.08;12.35;101784.77;1651096;84;21225;-84
2022/03/28 09:30:12;;;;;;;5.90;3.27;;;;;;;25.49;12.82;101795.25;1665408;84;21108;-85
2022/03/28 09:32:47;;;;;;;11.97;3.58;;;;;;;24.74;12.69;101787.89;1670486;84;21096;-84
2022/03/28 09:35:20;;;;;;;7.03;3.20;;;;;;;24.07;13.23;101792.75;1662043;85;21794;-84
2022/03/28 09:38:08;;;;;;;8.25;3.50;;;;;;;23.74;12.93;101788.24;1660951;83;21051;-83
2022/03/28 09:40:41;;;;;;;10.38;4.03;;;;;;;23.33;13.22;101781.11;1657656;83;21101;-83
2022/03/28 09:43:30;;;;;;;9.25;3.17;;;;;;;23.33;13.51;101770.91;1611845;87;21549;-83
2022/03/28 09:46:00;;;;;;;4.62;2.60;;;;;;;23.35;13.50;101770.04;1588117;88;21604;-83
2022/03/28 09:48:28;;;;;;;6.78;2.40;;;;;;;23.47;13.73;101761.18;1598451;88;21187;-82
2022/03/28 09:51:05;;;;;;;6.80;2.00;;;;;;;23.63;13.72;101761.54;1603246;88;21111;-83
2022/03/28 09:53:38;;;;;;;4.87;2.15;;;;;;;23.74;13.78;101757.96;1599122;87;21099;-84
2022/03/28 09:56:08;;;;;;;7.25;2.42;;;;;;;22.87;13.17;101755.60;1601777;88;21041;-82
2022/03/28 09:58:42;;;;;;;6.33;2.27;;;;;;;21.71;13.86;101755.29;1536520;92;21594;-81
2022/03/28 10:01:16;;;;;;;5.37;2.00;;;;;;;21.20;14.33;101757.63;1577266;89;21130;-84
2022/03/28 10:03:49;;;;;;;7.25;1.95;;;;;;;20.24;14.16;101762.25;1533884;91;21100;-82
2022/03/28 10:06:16;;;;;;;8.50;2.22;;;;;;;19.47;14.84;101761.02;1549361;90;21206;-82
2022/03/28 10:08:45;;;;;;;3.95;2.00;;;;;;;19.29;15.14;101757.11;1541214;90;21078;-82
2022/03/28 10:11:12;;;;;;;7.20;2.10;;;;;;;19.01;15.59;101759.59;1533495;91;21080;-82
2022/03/28 10:13:40;;;;;;;8.48;2.22;;;;;;;18.51;15.64;101747.98;1540607;90;21172;-82
2022/03/28 10:16:08;;;;;;;7.30;2.55;;;;;;;18.07;15.90;101746.09;1532960;91;21130;-82
2022/03/28 10:18:41;;;;;;;6.92;1.77;;;;;;;17.73;16.14;101752.77;1551272;92;21071;-83
2022/03/28 10:21:18;;;;;;;8.60;2.10;;;;;;;17.28;16.59;101751.03;1544760;92;21609;-82
2022/03/28 10:24:15;;;;;;;5.87;2.00;;;;;;;16.83;16.55;101736.41;1493558;93;21156;-82
2022/03/28 10:26:50;;;;;;;6.95;2.00;;;;;;;16.20;17.22;101726.53;1461790;95;21274;-82
2022/03/28 10:29:21;;;;;;;10.13;2.12;;;;;;;15.81;17.57;101722.91;1466023;96;21042;-82
2022/03/28 10:32:04;;;;;;;9.53;2.45;;;;;;;15.52;17.74;101718.43;1454566;95;21731;-82
2022/03/28 10:35:01;;;;;;;5.80;2.20;;;;;;;15.12;17.90;101715.80;1436223;97;21581;-82
2022/03/28 10:37:48;;;;;;;8.63;1.92;;;;;;;14.70;18.26;101697.58;1543561;90;21062;-82
2022/03/28 10:40:29;;;;;;;4.75;2.05;;;;;;;14.45;18.56;101695.47;1562897;86;21160;-81
2022/03/28 10:43:12;;;;;;;18.30;2.62;;;;;;;14.21;19.10;101683.34;1608275;86;21077;-82
2022/03/28 10:45:46;;;;;;;8.40;2.50;;;;;;;14.13;19.04;101687.86;1615132;86;21125;-82
2022/03/28 10:48:14;;;;;;;7.35;2.60;;;;;;;13.90;19.22;101672.18;1605488;87;21216;-81
2022/03/28 10:50:51;;;;;;;6.22;3.10;;;;;;;13.70;19.54;101652.45;1610839;86;21152;-81
2022/03/28 10:53:29;;;;;;;7.55;2.45;;;;;;;14.01;20.04;101650.89;1597559;87;21939;-82
2022/03/28 10:56:02;;;;;;;5.92;2.50;;;;;;;14.01;20.04;101650.89;1630737;84;21114;-81
2022/03/28 10:58:31;;;;;;;9.97;2.50;;;;;;;14.14;19.82;101662.38;1682238;83;21589;-82
2022/03/28 11:01:36;;;;;;;9.43;2.30;;;;;;;14.13;19.80;101655.33;1666412;83;21235;-82
2022/03/28 11:04:18;;;;;;;5.60;2.15;;;;;;;13.95;19.93;101647.04;1692627;82;21124;-82
2022/03/28 11:07:04;;;;;;;8.15;2.12;;;;;;;13.99;20.01;101653.03;1684532;82;39947;-82
2022/03/28 11:09:48;;;;;;;13.18;2.10;;;;;;;14.00;19.88;101647.06;1688522;82;21259;-81
2022/03/28 11:12:35;;;;;;;14.07;2.40;;;;;;;13.92;19.92;101631.30;1691820;82;21745;-81
2022/03/28 11:15:21;;;;;;;11.12;2.83;;;;;;;14.08;20.05;101627.63;1685159;82;21037;-83
2022/03/28 11:18:09;;;;;;;5.58;1.98;;;;;;;14.21;19.99;101608.78;1637544;85;21175;-82
2022/03/28 11:20:50;;;;;;;10.88;2.40;;;;;;;14.15;20.17;101599.78;1634641;86;21275;-81
2022/03/28 11:23:18;;;;;;;5.87;1.70;;;;;;;14.18;20.29;101600.63;1636988;85;20972;-82
2022/03/28 11:25:53;;;;;;;6.15;2.27;;;;;;;14.34;20.33;101583.92;1631327;85;20985;-82
2022/03/28 11:28:28;;;;;;;14.25;2.25;;;;;;;14.19;20.09;101582.45;1636645;84;21088;-81
2022/03/28 11:31:06;;;;;;;11.33;2.37;;;;;;;14.16;20.35;101584.33;1642920;85;21126;-80
2022/03/28 11:33:40;;;;;;;11.63;2.60;;;;;;;14.25;20.39;101585.48;1658803;84;21152;-81
2022/03/28 11:36:13;;;;;;;7.10;2.40;;;;;;;14.24;20.43;101586.03;1651928;84;21146;-81